Time,TemperatureF,DewpointF,PressureIn,WindDirection,WindDirectionDegrees,WindSpeedMPH,WindSpeedGustMPH,Humidity,HourlyPrecipIn,Conditions,Clouds,dailyrainin,SoftwareType,DateUTC
2013-02-28 00:01:00,31.9,18.8,31.77,NNW,331,0.0,3.0,58,0.00,,,0.00,Wunderground v.1.15,2013-02-28 08:01:00,
2013-02-28 00:06:00,31.9,16.2,31.77,NNW,331,0.0,3.0,52,0.00,,,0.00,Wunderground v.1.15,2013-02-28 08:06:00,
2013-02-28 00:11:00,32.1,17.3,31.77,NNW,331,0.0,0.0,54,0.00,,,0.00,Wunderground v.1.15,2013-02-28 08:11:00,
2013-02-28 00:16:00,32.5,15.4,31.77,NNW,331,0.0,0.0,49,0.00,,,0.00,Wunderground v.1.15,2013-02-28 08:16:00,
2013-02-28 00:21:00,33.2,15.6,31.77,NNW,331,0.0,0.0,48,0.00,,,0.00,Wunderground v.1.15,2013-02-28 08:21:00,
2013-02-28 00:26:00,34.2,12.4,31.77,SSW,200,0.0,3.0,40,0.00,,,0.00,Wunderground v.1.15,2013-02-28 08:26:00,
2013-02-28 00:31:00,35.4,15.1,31.77,SSW,211,1.0,1.0,43,0.00,,,0.00,Wunderground v.1.15,2013-02-28 08:31:00,
2013-02-28 00:36:00,36.1,12.9,31.77,SW,215,1.0,1.0,38,0.00,,,0.00,Wunderground v.1.15,2013-02-28 08:36:00,
2013-02-28 00:41:00,36.6,15.1,31.77,SW,214,0.0,0.0,41,0.00,,,0.00,Wunderground v.1.15,2013-02-28 08:41:00,
2013-02-28 00:46:00,36.7,16.8,31.77,SW,215,0.0,0.0,44,0.00,,,0.00,Wunderground v.1.15,2013-02-28 08:46:00,
2013-02-28 00:51:00,36.4,14.9,31.77,SW,215,0.0,0.0,41,0.00,,,0.00,Wunderground v.1.15,2013-02-28 08:51:00,
2013-02-28 00:56:00,36.0,14.5,31.77,SW,214,0.0,0.0,41,0.00,,,0.00,Wunderground v.1.15,2013-02-28 08:56:00,
2013-02-28 01:01:00,35.7,15.9,31.77,SW,214,0.0,3.0,44,0.00,,,0.00,Wunderground v.1.15,2013-02-28 09:01:00,
2013-02-28 01:11:00,35.1,16.9,31.77,SW,215,0.0,0.0,47,0.00,,,0.00,Wunderground v.1.15,2013-02-28 09:11:00,
2013-02-28 01:16:00,34.6,15.9,31.77,SW,214,0.0,0.0,46,0.00,,,0.00,Wunderground v.1.15,2013-02-28 09:16:00,
2013-02-28 01:21:00,34.4,17.2,31.77,SW,215,0.0,0.0,49,0.00,,,0.00,Wunderground v.1.15,2013-02-28 09:21:00,
2013-02-28 01:26:00,33.9,17.7,31.77,SW,215,0.0,0.0,51,0.00,,,0.00,Wunderground v.1.15,2013-02-28 09:26:00,
2013-02-28 01:31:00,33.6,15.5,31.77,SW,215,0.0,0.0,47,0.00,,,0.00,Wunderground v.1.15,2013-02-28 09:31:00,
2013-02-28 01:36:00,33.2,16.5,31.77,SW,214,0.0,0.0,50,0.00,,,0.00,Wunderground v.1.15,2013-02-28 09:36:00,
2013-02-28 01:41:00,32.9,15.8,31.77,SW,214,0.0,0.0,49,0.00,,,0.00,Wunderground v.1.15,2013-02-28 09:41:00,
2013-02-28 01:46:00,32.6,16.0,31.77,SW,215,0.0,0.0,50,0.00,,,0.00,Wunderground v.1.15,2013-02-28 09:46:00,
2013-02-28 01:51:00,32.3,16.2,31.77,SW,215,0.0,0.0,51,0.00,,,0.00,Wunderground v.1.15,2013-02-28 09:51:00,
2013-02-28 01:56:00,32.1,16.4,31.77,SW,215,0.0,0.0,52,0.00,,,0.00,Wunderground v.1.15,2013-02-28 09:56:00,
2013-02-28 02:01:00,31.8,15.7,31.77,SW,215,0.0,3.0,51,0.00,,,0.00,Wunderground v.1.15,2013-02-28 10:01:00,
2013-02-28 02:11:00,31.4,17.9,31.77,SW,214,0.0,0.0,57,0.00,,,0.00,Wunderground v.1.15,2013-02-28 10:11:00,
2013-02-28 02:16:00,31.2,18.1,31.77,SW,214,0.0,0.0,58,0.00,,,0.00,Wunderground v.1.15,2013-02-28 10:16:00,
2013-02-28 02:21:00,31.0,16.7,31.77,SW,215,0.0,0.0,55,0.00,,,0.00,Wunderground v.1.15,2013-02-28 10:21:00,
2013-02-28 02:26:00,30.9,16.6,31.77,SW,215,0.0,0.0,55,0.00,,,0.00,Wunderground v.1.15,2013-02-28 10:26:00,
2013-02-28 02:31:00,30.8,15.7,31.77,SW,215,0.0,0.0,53,0.00,,,0.00,Wunderground v.1.15,2013-02-28 10:31:00,
2013-02-28 02:36:00,30.9,16.2,31.77,SW,214,0.0,0.0,54,0.00,,,0.00,Wunderground v.1.15,2013-02-28 10:36:00,
2013-02-28 02:41:00,31.1,15.9,31.77,SW,215,0.0,0.0,53,0.00,,,0.00,Wunderground v.1.15,2013-02-28 10:41:00,
2013-02-28 02:46:00,31.3,15.2,31.77,SW,215,0.0,0.0,51,0.00,,,0.00,Wunderground v.1.15,2013-02-28 10:46:00,
2013-02-28 02:51:00,31.6,14.1,31.77,SW,214,0.0,0.0,48,0.00,,,0.00,Wunderground v.1.15,2013-02-28 10:51:00,
2013-02-28 02:56:00,32.0,14.5,31.77,SW,214,0.0,1.0,48,0.00,,,0.00,Wunderground v.1.15,2013-02-28 10:56:00,
2013-02-28 03:01:00,32.5,15.0,31.77,SW,215,0.0,1.0,48,0.00,,,0.00,Wunderground v.1.15,2013-02-28 11:01:00,
2013-02-28 03:06:00,33.0,13.9,31.77,SW,215,0.0,1.0,45,0.00,,,0.00,Wunderground v.1.15,2013-02-28 11:06:00,
2013-02-28 03:16:00,34.4,11.4,31.77,ESE,102,1.0,5.0,38,0.00,,,0.00,Wunderground v.1.15,2013-02-28 11:16:00,
2013-02-28 03:21:00,36.2,13.0,31.77,ESE,109,1.0,1.0,38,0.00,,,0.00,Wunderground v.1.15,2013-02-28 11:21:00,
2013-02-28 03:26:00,36.8,12.3,31.77,NNW,331,1.0,1.0,36,0.00,,,0.00,Wunderground v.1.15,2013-02-28 11:26:00,
2013-02-28 03:31:00,37.5,13.6,31.77,NW,314,0.0,0.0,37,0.00,,,0.00,Wunderground v.1.15,2013-02-28 11:31:00,
2013-02-28 03:36:00,38.9,11.5,31.77,North,5,1.0,1.0,32,0.00,,,0.00,Wunderground v.1.15,2013-02-28 11:36:00,
2013-02-28 03:41:00,40.3,12.0,31.77,NE,37,1.0,1.0,31,0.00,,,0.00,Wunderground v.1.15,2013-02-28 11:41:00,
2013-02-28 03:46:00,41.1,12.7,31.77,NNW,342,1.0,1.0,31,0.00,,,0.00,Wunderground v.1.15,2013-02-28 11:46:00,
2013-02-28 03:51:00,41.8,11.8,31.77,NW,325,1.0,1.0,29,0.00,,,0.00,Wunderground v.1.15,2013-02-28 11:51:00,
2013-02-28 04:01:00,41.7,12.5,31.77,East,96,1.0,1.0,30,0.00,,,0.00,Wunderground v.1.15,2013-02-28 12:01:00,
2013-02-28 04:11:00,41.0,14.1,31.77,East,87,0.0,0.0,33,0.00,,,0.00,Wunderground v.1.15,2013-02-28 12:11:00,
2013-02-28 04:16:00,40.4,15.5,31.77,East,87,0.0,0.0,36,0.00,,,0.00,Wunderground v.1.15,2013-02-28 12:16:00,
2013-02-28 04:21:00,39.6,17.2,31.77,East,87,0.0,0.0,40,0.00,,,0.00,Wunderground v.1.15,2013-02-28 12:21:00,
2013-02-28 04:26:00,38.5,13.8,31.77,East,92,1.0,1.0,36,0.00,,,0.00,Wunderground v.1.15,2013-02-28 12:26:00,
2013-02-28 04:31:00,38.2,16.0,31.77,East,91,1.0,1.0,40,0.00,,,0.00,Wunderground v.1.15,2013-02-28 12:31:00,
2013-02-28 04:36:00,38.3,13.0,31.77,SSW,196,1.0,1.0,35,0.00,,,0.00,Wunderground v.1.15,2013-02-28 12:36:00,
2013-02-28 04:41:00,38.4,14.4,31.77,SSW,196,1.0,1.0,37,0.00,,,0.00,Wunderground v.1.15,2013-02-28 12:41:00,
2013-02-28 04:51:00,37.7,15.5,31.77,South,180,0.0,1.0,40,0.00,,,0.00,Wunderground v.1.15,2013-02-28 12:51:00,
2013-02-28 04:56:00,37.7,10.4,31.77,SSE,165,1.0,1.0,32,0.00,,,0.00,Wunderground v.1.15,2013-02-28 12:56:00,
2013-02-28 05:01:00,37.9,16.3,31.77,SSE,155,1.0,1.0,41,0.00,,,0.00,Wunderground v.1.15,2013-02-28 13:01:00,
2013-02-28 05:11:00,37.4,13.5,31.77,SSE,161,1.0,1.0,37,0.00,,,0.00,Wunderground v.1.15,2013-02-28 13:11:00,
2013-02-28 05:16:00,37.8,13.2,31.77,WSW,252,1.0,1.0,36,0.00,,,0.00,Wunderground v.1.15,2013-02-28 13:16:00,
2013-02-28 05:21:00,37.7,14.9,31.77,West,269,1.0,1.0,39,0.00,,,0.00,Wunderground v.1.15,2013-02-28 13:21:00,
2013-02-28 05:26:00,37.6,13.6,31.77,West,264,1.0,1.0,37,0.00,,,0.00,Wunderground v.1.15,2013-02-28 13:26:00,
2013-02-28 05:31:00,37.4,13.5,31.77,West,264,0.0,0.0,37,0.00,,,0.00,Wunderground v.1.15,2013-02-28 13:31:00,
2013-02-28 05:36:00,37.3,14.0,31.77,West,264,0.0,3.0,38,0.00,,,0.00,Wunderground v.1.15,2013-02-28 13:36:00,
2013-02-28 05:41:00,37.0,13.1,31.77,West,278,0.0,2.0,37,0.00,,,0.00,Wunderground v.1.15,2013-02-28 13:41:00,
2013-02-28 05:46:00,37.0,13.7,31.77,West,259,1.0,2.0,38,0.00,,,0.00,Wunderground v.1.15,2013-02-28 13:46:00,
2013-02-28 05:51:00,37.1,15.5,31.77,West,259,1.0,1.0,41,0.00,,,0.00,Wunderground v.1.15,2013-02-28 13:51:00,
2013-02-28 05:56:00,37.1,12.6,31.77,South,189,0.0,1.0,36,0.00,,,0.00,Wunderground v.1.15,2013-02-28 13:56:00,
2013-02-28 06:01:00,37.2,13.9,31.77,SW,232,1.0,1.0,38,0.00,,,0.00,Wunderground v.1.15,2013-02-28 14:01:00,
2013-02-28 06:06:00,37.1,14.4,31.77,SW,226,1.0,2.0,39,0.00,,,0.00,Wunderground v.1.15,2013-02-28 14:06:00,
2013-02-28 06:11:00,36.9,13.6,31.77,SW,227,0.0,0.0,38,0.00,,,0.00,Wunderground v.1.15,2013-02-28 14:11:00,
2013-02-28 06:16:00,36.6,12.7,31.77,SW,227,0.0,0.0,37,0.00,,,0.00,Wunderground v.1.15,2013-02-28 14:16:00,
2013-02-28 06:21:00,36.4,13.8,31.77,East,98,1.0,3.0,39,0.00,,,0.00,Wunderground v.1.15,2013-02-28 14:21:00,
2013-02-28 06:26:00,36.3,10.6,31.77,ESE,118,1.0,3.0,34,0.00,,,0.00,Wunderground v.1.15,2013-02-28 14:26:00,
2013-02-28 06:31:00,36.7,14.6,31.77,ESE,117,1.0,1.0,40,0.00,,,0.00,Wunderground v.1.15,2013-02-28 14:31:00,
2013-02-28 06:36:00,36.5,15.6,31.77,SW,233,1.0,1.0,42,0.00,,,0.00,Wunderground v.1.15,2013-02-28 14:36:00,
2013-02-28 06:41:00,36.2,14.2,31.77,SW,218,0.0,0.0,40,0.00,,,0.00,Wunderground v.1.15,2013-02-28 14:41:00,
2013-02-28 06:46:00,35.9,14.5,31.77,SSW,210,0.0,0.0,41,0.00,,,0.00,Wunderground v.1.15,2013-02-28 14:46:00,
2013-02-28 06:56:00,36.0,11.0,31.77,ESE,119,1.0,4.0,35,0.00,,,0.00,Wunderground v.1.15,2013-02-28 14:56:00,
2013-02-28 07:01:00,36.9,13.6,31.77,ESE,118,1.0,1.0,38,0.00,,,0.00,Wunderground v.1.15,2013-02-28 15:01:00,
2013-02-28 07:06:00,37.5,12.3,31.77,NW,311,0.0,2.0,35,0.00,,,0.00,Wunderground v.1.15,2013-02-28 15:06:00,
2013-02-28 07:11:00,38.3,12.3,31.77,NW,310,0.0,0.0,34,0.00,,,0.00,Wunderground v.1.15,2013-02-28 15:11:00,
2013-02-28 07:16:00,38.8,14.7,31.77,NW,311,0.0,0.0,37,0.00,,,0.00,Wunderground v.1.15,2013-02-28 15:16:00,
2013-02-28 07:21:00,38.8,11.4,31.77,North,10,1.0,1.0,32,0.00,,,0.00,Wunderground v.1.15,2013-02-28 15:21:00,
2013-02-28 07:26:00,39.5,13.4,31.77,NE,37,1.0,1.0,34,0.00,,,0.00,Wunderground v.1.15,2013-02-28 15:26:00,
2013-02-28 07:31:00,40.3,12.0,31.77,NNE,28,1.0,1.0,31,0.00,,,0.00,Wunderground v.1.15,2013-02-28 15:31:00,
2013-02-28 07:36:00,41.4,13.0,31.77,NNW,329,1.0,1.0,31,0.00,,,0.00,Wunderground v.1.15,2013-02-28 15:36:00,
2013-02-28 07:41:00,42.2,14.4,31.77,NW,312,1.0,1.0,32,0.00,,,0.00,Wunderground v.1.15,2013-02-28 15:41:00,
2013-02-28 07:46:00,42.4,13.9,31.77,NW,309,1.0,2.0,31,0.00,,,0.00,Wunderground v.1.15,2013-02-28 15:46:00,
2013-02-28 07:51:00,42.8,14.2,31.77,NW,322,1.0,1.0,31,0.00,,,0.00,Wunderground v.1.15,2013-02-28 15:51:00,
2013-02-28 07:56:00,43.1,14.5,31.77,NW,324,1.0,1.0,31,0.00,,,0.00,Wunderground v.1.15,2013-02-28 15:56:00,
2013-02-28 08:01:00,43.3,15.4,31.77,NNW,342,1.0,1.0,32,0.00,,,0.00,Wunderground v.1.15,2013-02-28 16:01:00,
2013-02-28 08:06:00,43.5,16.3,31.77,North,360,2.0,2.0,33,0.00,,,0.00,Wunderground v.1.15,2013-02-28 16:06:00,
2013-02-28 08:11:00,43.7,15.0,31.77,NNE,22,2.0,4.0,31,0.00,,,0.00,Wunderground v.1.15,2013-02-28 16:11:00,
2013-02-28 08:16:00,44.0,16.7,31.77,NE,41,2.0,4.0,33,0.00,,,0.00,Wunderground v.1.15,2013-02-28 16:16:00,
2013-02-28 08:21:00,44.1,15.3,31.77,ESE,109,2.0,2.0,31,0.00,,,0.00,Wunderground v.1.15,2013-02-28 16:21:00,
2013-02-28 08:26:00,44.4,17.1,31.77,NW,304,1.0,2.0,33,0.00,,,0.00,Wunderground v.1.15,2013-02-28 16:26:00,
2013-02-28 08:31:00,44.8,15.2,31.77,East,100,1.0,3.0,30,0.00,,,0.00,Wunderground v.1.15,2013-02-28 16:31:00,
2013-02-28 08:36:00,45.4,14.9,31.77,ESE,113,2.0,3.0,29,0.00,,,0.00,Wunderground v.1.15,2013-02-28 16:36:00,
2013-02-28 08:41:00,46.1,14.8,31.77,NE,36,3.0,3.0,28,0.00,,,0.00,Wunderground v.1.15,2013-02-28 16:41:00,
2013-02-28 08:46:00,46.7,14.4,31.77,ENE,57,3.0,3.0,27,0.00,,,0.00,Wunderground v.1.15,2013-02-28 16:46:00,
2013-02-28 08:51:00,47.2,14.9,31.77,East,98,3.0,5.0,27,0.00,,,0.00,Wunderground v.1.15,2013-02-28 16:51:00,
2013-02-28 08:56:00,47.5,16.0,31.77,ENE,64,3.0,5.0,28,0.00,,,0.00,Wunderground v.1.15,2013-02-28 16:56:00,
2013-02-28 09:01:00,47.6,15.2,31.77,ESE,115,2.0,2.0,27,0.00,,,0.00,Wunderground v.1.15,2013-02-28 17:01:00,
2013-02-28 09:06:00,48.2,16.6,31.77,SE,128,2.0,2.0,28,0.00,,,0.00,Wunderground v.1.15,2013-02-28 17:06:00,
2013-02-28 09:11:00,49.0,16.4,31.77,SE,136,1.0,1.0,27,0.00,,,0.00,Wunderground v.1.15,2013-02-28 17:11:00,
2013-02-28 09:16:00,49.4,16.8,31.77,East,80,1.0,2.0,27,0.00,,,0.00,Wunderground v.1.15,2013-02-28 17:16:00,
2013-02-28 09:21:00,49.4,17.6,31.77,ESE,120,2.0,2.0,28,0.00,,,0.00,Wunderground v.1.15,2013-02-28 17:21:00,
2013-02-28 09:26:00,50.0,18.9,31.77,SSW,197,1.0,3.0,29,0.00,,,0.00,Wunderground v.1.15,2013-02-28 17:26:00,
2013-02-28 09:31:00,50.4,16.8,31.77,ESE,120,1.0,1.0,26,0.00,,,0.00,Wunderground v.1.15,2013-02-28 17:31:00,
2013-02-28 09:36:00,50.6,17.8,31.77,SSE,165,2.0,2.0,27,0.00,,,0.00,Wunderground v.1.15,2013-02-28 17:36:00,
2013-02-28 09:41:00,50.9,18.9,31.77,SW,222,3.0,3.0,28,0.00,,,0.00,Wunderground v.1.15,2013-02-28 17:41:00,
2013-02-28 09:46:00,51.1,19.1,31.77,North,350,2.0,3.0,28,0.00,,,0.00,Wunderground v.1.15,2013-02-28 17:46:00,
2013-02-28 09:51:00,51.3,19.3,31.77,ESE,118,3.0,5.0,28,0.00,,,0.00,Wunderground v.1.15,2013-02-28 17:51:00,
2013-02-28 09:56:00,51.5,19.4,31.77,SSE,164,2.0,8.0,28,0.00,,,0.00,Wunderground v.1.15,2013-02-28 17:56:00,
2013-02-28 10:01:00,51.4,18.5,31.77,South,171,3.0,13.0,27,0.00,,,0.00,Wunderground v.1.15,2013-02-28 18:01:00,
2013-02-28 10:06:00,50.6,19.5,31.77,South,175,3.0,13.0,29,0.00,,,0.00,Wunderground v.1.15,2013-02-28 18:06:00,
2013-02-28 10:11:00,50.8,18.8,31.77,SSE,158,1.0,1.0,28,0.00,,,0.00,Wunderground v.1.15,2013-02-28 18:11:00,
2013-02-28 10:16:00,51.3,18.4,31.77,South,186,1.0,1.0,27,0.00,,,0.00,Wunderground v.1.15,2013-02-28 18:16:00,
2013-02-28 10:21:00,51.4,18.5,31.77,South,190,1.0,1.0,27,0.00,,,0.00,Wunderground v.1.15,2013-02-28 18:21:00,
2013-02-28 10:26:00,51.2,17.4,31.77,South,183,1.0,1.0,26,0.00,,,0.00,Wunderground v.1.15,2013-02-28 18:26:00,
2013-02-28 10:31:00,50.6,17.8,31.77,SSW,198,1.0,1.0,27,0.00,,,0.00,Wunderground v.1.15,2013-02-28 18:31:00,
2013-02-28 10:36:00,50.5,17.7,31.77,SSW,194,1.0,7.0,27,0.00,,,0.00,Wunderground v.1.15,2013-02-28 18:36:00,
2013-02-28 10:41:00,50.4,20.1,31.77,WSW,254,1.0,1.0,30,0.00,,,0.00,Wunderground v.1.15,2013-02-28 18:41:00,
2013-02-28 10:46:00,50.4,19.3,31.77,West,260,1.0,1.0,29,0.00,,,0.00,Wunderground v.1.15,2013-02-28 18:46:00,
2013-02-28 10:51:00,50.3,18.4,31.77,ESE,122,1.0,1.0,28,0.00,,,0.00,Wunderground v.1.15,2013-02-28 18:51:00,
2013-02-28 10:56:00,50.4,18.5,31.77,ESE,123,1.0,1.0,28,0.00,,,0.00,Wunderground v.1.15,2013-02-28 18:56:00,
2013-02-28 11:01:00,50.8,18.8,31.77,SE,136,0.0,14.0,28,0.00,,,0.00,Wunderground v.1.15,2013-02-28 19:01:00,
2013-02-28 11:06:00,51.4,19.3,31.77,West,267,0.0,14.0,28,0.00,,,0.00,Wunderground v.1.15,2013-02-28 19:06:00,
2013-02-28 11:11:00,52.1,19.9,31.77,SE,136,1.0,1.0,28,0.00,,,0.00,Wunderground v.1.15,2013-02-28 19:11:00,
2013-02-28 11:16:00,52.6,18.6,31.77,SE,138,1.0,1.0,26,0.00,,,0.00,Wunderground v.1.15,2013-02-28 19:16:00,
2013-02-28 11:21:00,52.9,19.8,31.77,WSW,242,0.0,0.0,27,0.00,,,0.00,Wunderground v.1.15,2013-02-28 19:21:00,
2013-02-28 11:26:00,53.0,21.6,31.77,SE,143,0.0,0.0,29,0.00,,,0.00,Wunderground v.1.15,2013-02-28 19:26:00,
2013-02-28 11:31:00,52.9,18.9,31.77,South,180,0.0,0.0,26,0.00,,,0.00,Wunderground v.1.15,2013-02-28 19:31:00,
2013-02-28 11:36:00,53.3,19.2,31.77,SSW,202,0.0,2.0,26,0.00,,,0.00,Wunderground v.1.15,2013-02-28 19:36:00,
2013-02-28 11:41:00,53.2,19.2,31.77,SW,215,1.0,1.0,26,0.00,,,0.00,Wunderground v.1.15,2013-02-28 19:41:00,
2013-02-28 11:46:00,52.8,19.7,31.77,WSW,245,1.0,1.0,27,0.00,,,0.00,Wunderground v.1.15,2013-02-28 19:46:00,
2013-02-28 11:51:00,52.4,18.5,31.77,South,184,1.0,1.0,26,0.00,,,0.00,Wunderground v.1.15,2013-02-28 19:51:00,
2013-02-28 11:56:00,52.1,19.9,31.77,South,183,1.0,1.0,28,0.00,,,0.00,Wunderground v.1.15,2013-02-28 19:56:00,
2013-02-28 12:01:00,52.0,19.9,31.77,SSW,196,1.0,1.0,28,0.00,,,0.00,Wunderground v.1.15,2013-02-28 20:01:00,
2013-02-28 12:06:00,51.9,19.8,31.77,SSW,194,1.0,2.0,28,0.00,,,0.00,Wunderground v.1.15,2013-02-28 20:06:00,
2013-02-28 12:11:00,52.1,20.8,31.77,SSW,212,1.0,3.0,29,0.00,,,0.00,Wunderground v.1.15,2013-02-28 20:11:00,
2013-02-28 12:16:00,52.2,20.9,31.77,SSE,165,0.0,3.0,29,0.00,,,0.00,Wunderground v.1.15,2013-02-28 20:16:00,
2013-02-28 12:21:00,52.1,20.8,31.77,South,173,1.0,1.0,29,0.00,,,0.00,Wunderground v.1.15,2013-02-28 20:21:00,
2013-02-28 12:26:00,52.3,20.9,31.77,ESE,106,1.0,1.0,29,0.00,,,0.00,Wunderground v.1.15,2013-02-28 20:26:00,
2013-02-28 12:31:00,52.5,22.7,31.77,SSW,201,1.0,1.0,31,0.00,,,0.00,Wunderground v.1.15,2013-02-28 20:31:00,
2013-02-28 12:41:00,52.6,20.4,31.77,SE,130,0.0,0.0,28,0.00,,,0.00,Wunderground v.1.15,2013-02-28 20:41:00,
2013-02-28 12:46:00,52.7,20.5,31.77,SSW,200,1.0,6.0,28,0.00,,,0.00,Wunderground v.1.15,2013-02-28 20:46:00,
2013-02-28 12:51:00,52.5,20.3,31.77,ESE,105,2.0,2.0,28,0.00,,,0.00,Wunderground v.1.15,2013-02-28 20:51:00,
2013-02-28 12:56:00,52.4,20.2,31.77,ESE,105,1.0,2.0,28,0.00,,,0.00,Wunderground v.1.15,2013-02-28 20:56:00,
2013-02-28 13:01:00,52.9,23.8,31.77,West,280,1.0,1.0,32,0.00,,,0.00,Wunderground v.1.15,2013-02-28 21:01:00,
2013-02-28 13:11:00,53.9,22.3,31.77,South,178,1.0,1.0,29,0.00,,,0.00,Wunderground v.1.15,2013-02-28 21:11:00,
2013-02-28 13:16:00,54.2,22.6,31.77,South,179,0.0,1.0,29,0.00,,,0.00,Wunderground v.1.15,2013-02-28 21:16:00,
2013-02-28 13:21:00,54.6,23.7,31.77,South,178,0.0,1.0,30,0.00,,,0.00,Wunderground v.1.15,2013-02-28 21:21:00,
2013-02-28 13:26:00,55.0,23.3,31.77,West,269,1.0,2.0,29,0.00,,,0.00,Wunderground v.1.15,2013-02-28 21:26:00,
2013-02-28 13:31:00,55.7,23.1,31.77,West,279,1.0,1.0,28,0.00,,,0.00,Wunderground v.1.15,2013-02-28 21:31:00,
2013-02-28 13:36:00,56.2,22.6,31.77,West,275,1.0,1.0,27,0.00,,,0.00,Wunderground v.1.15,2013-02-28 21:36:00,
2013-02-28 13:41:00,56.3,21.8,31.77,SSE,147,0.0,0.0,26,0.00,,,0.00,Wunderground v.1.15,2013-02-28 21:41:00,
2013-02-28 13:46:00,56.4,22.8,31.77,South,178,0.0,0.0,27,0.00,,,0.00,Wunderground v.1.15,2013-02-28 21:46:00,
2013-02-28 13:51:00,56.8,22.2,31.77,SE,144,1.0,1.0,26,0.00,,,0.00,Wunderground v.1.15,2013-02-28 21:51:00,
2013-02-28 13:56:00,57.0,24.2,31.77,WNW,287,1.0,1.0,28,0.00,,,0.00,Wunderground v.1.15,2013-02-28 21:56:00,
2013-02-28 14:01:00,57.4,22.8,31.77,West,275,1.0,1.0,26,0.00,,,0.00,Wunderground v.1.15,2013-02-28 22:01:00,
2013-02-28 14:06:00,57.7,23.0,31.77,West,273,1.0,5.0,26,0.00,,,0.00,Wunderground v.1.15,2013-02-28 22:06:00,
2013-02-28 14:11:00,58.0,22.3,31.77,West,263,1.0,1.0,25,0.00,,,0.00,Wunderground v.1.15,2013-02-28 22:11:00,
2013-02-28 14:16:00,58.2,25.2,31.77,West,263,0.0,1.0,28,0.00,,,0.00,Wunderground v.1.15,2013-02-28 22:16:00,
2013-02-28 14:26:00,59.0,24.1,31.77,South,183,0.0,3.0,26,0.00,,,0.00,Wunderground v.1.15,2013-02-28 22:26:00,
2013-02-28 14:31:00,59.0,24.1,31.77,South,184,1.0,1.0,26,0.00,,,0.00,Wunderground v.1.15,2013-02-28 22:31:00,
2013-02-28 14:36:00,59.0,25.0,31.77,West,266,0.0,1.0,27,0.00,,,0.00,Wunderground v.1.15,2013-02-28 22:36:00,
2013-02-28 14:41:00,59.0,25.0,31.77,SSE,164,1.0,1.0,27,0.00,,,0.00,Wunderground v.1.15,2013-02-28 22:41:00,
2013-02-28 14:46:00,59.0,25.0,31.77,South,183,1.0,1.0,27,0.00,,,0.00,Wunderground v.1.15,2013-02-28 22:46:00,
2013-02-28 14:51:00,58.7,23.9,31.77,South,183,0.0,1.0,26,0.00,,,0.00,Wunderground v.1.15,2013-02-28 22:51:00,
2013-02-28 14:56:00,58.8,24.9,31.77,West,273,0.0,1.0,27,0.00,,,0.00,Wunderground v.1.15,2013-02-28 22:56:00,
2013-02-28 15:01:00,59.0,24.1,31.77,West,269,0.0,6.0,26,0.00,,,0.00,Wunderground v.1.15,2013-02-28 23:01:00,
2013-02-28 15:06:00,59.5,25.5,31.77,West,268,0.0,6.0,27,0.00,,,0.00,Wunderground v.1.15,2013-02-28 23:06:00,
2013-02-28 15:11:00,59.3,24.4,31.77,SSE,160,0.0,0.0,26,0.00,,,0.00,Wunderground v.1.15,2013-02-28 23:11:00,
2013-02-28 15:16:00,58.3,23.5,31.77,South,188,0.0,0.0,26,0.00,,,0.00,Wunderground v.1.15,2013-02-28 23:16:00,
2013-02-28 15:21:00,57.3,22.7,31.77,SSE,154,0.0,0.0,26,0.00,,,0.00,Wunderground v.1.15,2013-02-28 23:21:00,
2013-02-28 15:26:00,56.6,24.7,31.77,SSE,147,0.0,3.0,29,0.00,,,0.00,Wunderground v.1.15,2013-02-28 23:26:00,
2013-02-28 15:31:00,55.9,22.4,31.77,SSE,155,0.0,0.0,27,0.00,,,0.00,Wunderground v.1.15,2013-02-28 23:31:00,
2013-02-28 15:36:00,55.4,22.8,31.77,South,177,0.0,1.0,28,0.00,,,0.00,Wunderground v.1.15,2013-02-28 23:36:00,
2013-02-28 15:41:00,54.8,22.3,31.77,SSE,159,0.0,0.0,28,0.00,,,0.00,Wunderground v.1.15,2013-02-28 23:41:00,
2013-02-28 15:51:00,54.1,21.7,31.77,South,170,1.0,1.0,28,0.00,,,0.00,Wunderground v.1.15,2013-02-28 23:51:00,
2013-02-28 15:56:00,53.9,23.1,31.77,SE,134,1.0,1.0,30,0.00,,,0.00,Wunderground v.1.15,2013-02-28 23:56:00,
2013-02-28 16:01:00,53.8,22.2,31.77,SE,135,0.0,5.0,29,0.00,,,0.00,Wunderground v.1.15,2013-03-01 00:01:00,
2013-02-28 16:06:00,53.7,22.2,31.77,South,175,0.0,5.0,29,0.00,,,0.00,Wunderground v.1.15,2013-03-01 00:06:00,
2013-02-28 16:11:00,53.7,22.2,31.77,South,178,0.0,0.0,29,0.00,,,0.00,Wunderground v.1.15,2013-03-01 00:11:00,
2013-02-28 16:16:00,53.5,22.0,31.77,SSW,203,0.0,0.0,29,0.00,,,0.00,Wunderground v.1.15,2013-03-01 00:16:00,
2013-02-28 16:21:00,53.3,23.4,31.77,SSW,198,0.0,1.0,31,0.00,,,0.00,Wunderground v.1.15,2013-03-01 00:21:00,
2013-02-28 16:26:00,53.0,22.4,31.77,ESE,115,0.0,1.0,30,0.00,,,0.00,Wunderground v.1.15,2013-03-01 00:26:00,
2013-02-28 16:31:00,52.6,21.2,31.77,ESE,115,0.0,0.0,29,0.00,,,0.00,Wunderground v.1.15,2013-03-01 00:31:00,
2013-02-28 16:36:00,52.4,21.0,31.77,ESE,116,1.0,1.0,29,0.00,,,0.00,Wunderground v.1.15,2013-03-01 00:36:00,
2013-02-28 16:41:00,52.2,23.2,31.77,ESE,115,1.0,1.0,32,0.00,,,0.00,Wunderground v.1.15,2013-03-01 00:41:00,
2013-02-28 16:46:00,51.9,21.4,31.77,ESE,115,0.0,1.0,30,0.00,,,0.00,Wunderground v.1.15,2013-03-01 00:46:00,
2013-02-28 16:51:00,51.7,25.6,31.77,ESE,115,0.0,0.0,36,0.00,,,0.00,Wunderground v.1.15,2013-03-01 00:51:00,
2013-02-28 16:56:00,51.3,22.4,31.77,ESE,116,0.0,0.0,32,0.00,,,0.00,Wunderground v.1.15,2013-03-01 00:56:00,
2013-02-28 17:01:00,51.0,21.4,31.77,ESE,115,0.0,5.0,31,0.00,,,0.00,Wunderground v.1.15,2013-03-01 01:01:00,
2013-02-28 17:11:00,50.2,26.8,31.77,ESE,116,0.0,0.0,40,0.00,,,0.00,Wunderground v.1.15,2013-03-01 01:11:00,
2013-02-28 17:16:00,49.7,26.9,31.77,ESE,116,0.0,0.0,41,0.00,,,0.00,Wunderground v.1.15,2013-03-01 01:16:00,
2013-02-28 17:21:00,49.1,27.5,31.77,ESE,115,0.0,0.0,43,0.00,,,0.00,Wunderground v.1.15,2013-03-01 01:21:00,
2013-02-28 17:26:00,48.1,29.3,31.77,ESE,116,0.0,0.0,48,0.00,,,0.00,Wunderground v.1.15,2013-03-01 01:26:00,
2013-02-28 17:31:00,47.1,29.4,31.77,ESE,116,0.0,0.0,50,0.00,,,0.00,Wunderground v.1.15,2013-03-01 01:31:00,
2013-02-28 17:36:00,46.2,30.0,31.77,ESE,116,0.0,0.0,53,0.00,,,0.00,Wunderground v.1.15,2013-03-01 01:36:00,
2013-02-28 17:41:00,45.3,30.1,31.77,ESE,116,0.0,0.0,55,0.00,,,0.00,Wunderground v.1.15,2013-03-01 01:41:00,
2013-02-28 17:46:00,44.5,29.8,31.77,ESE,115,0.0,0.0,56,0.00,,,0.00,Wunderground v.1.15,2013-03-01 01:46:00,
2013-02-28 17:51:00,43.7,29.5,31.77,ESE,116,0.0,0.0,57,0.00,,,0.00,Wunderground v.1.15,2013-03-01 01:51:00,
2013-02-28 17:56:00,43.1,28.0,31.77,ESE,116,0.0,0.0,55,0.00,,,0.00,Wunderground v.1.15,2013-03-01 01:56:00,
2013-02-28 18:01:00,42.6,28.4,31.77,ESE,116,0.0,4.0,57,0.00,,,0.00,Wunderground v.1.15,2013-03-01 02:01:00,
2013-02-28 18:06:00,42.1,27.9,31.77,ESE,116,0.0,4.0,57,0.00,,,0.00,Wunderground v.1.15,2013-03-01 02:06:00,
2013-02-28 18:11:00,41.6,27.9,31.77,ESE,115,0.0,0.0,58,0.00,,,0.00,Wunderground v.1.15,2013-03-01 02:11:00,
2013-02-28 18:16:00,41.1,27.9,31.77,ESE,115,1.0,3.0,59,0.00,,,0.00,Wunderground v.1.15,2013-03-01 02:16:00,
2013-02-28 18:21:00,40.6,26.1,31.77,ESE,116,1.0,2.0,56,0.00,,,0.00,Wunderground v.1.15,2013-03-01 02:21:00,
2013-02-28 18:26:00,40.2,26.6,31.77,ESE,116,2.0,3.0,58,0.00,,,0.00,Wunderground v.1.15,2013-03-01 02:26:00,
2013-02-28 18:31:00,40.0,25.1,31.77,ESE,115,1.0,1.0,55,0.00,,,0.00,Wunderground v.1.15,2013-03-01 02:31:00,
2013-02-28 18:36:00,39.9,25.5,31.77,ESE,116,0.0,1.0,56,0.00,,,0.00,Wunderground v.1.15,2013-03-01 02:36:00,
2013-02-28 18:41:00,39.8,25.4,31.77,ESE,115,0.0,0.0,56,0.00,,,0.00,Wunderground v.1.15,2013-03-01 02:41:00,
2013-02-28 18:46:00,39.7,25.7,31.77,ESE,115,0.0,0.0,57,0.00,,,0.00,Wunderground v.1.15,2013-03-01 02:46:00,
2013-02-28 18:51:00,39.6,26.4,31.77,ESE,115,0.0,0.0,59,0.00,,,0.00,Wunderground v.1.15,2013-03-01 02:51:00,
2013-02-28 18:56:00,39.4,25.0,31.77,ESE,115,0.0,0.0,56,0.00,,,0.00,Wunderground v.1.15,2013-03-01 02:56:00,
2013-02-28 19:01:00,39.5,25.1,31.77,ESE,115,0.0,3.0,56,0.00,,,0.00,Wunderground v.1.15,2013-03-01 03:01:00,
2013-02-28 19:06:00,39.9,23.2,31.77,ESE,116,0.0,3.0,51,0.00,,,0.00,Wunderground v.1.15,2013-03-01 03:06:00,
2013-02-28 19:11:00,40.3,24.5,31.77,ESE,116,0.0,0.0,53,0.00,,,0.00,Wunderground v.1.15,2013-03-01 03:11:00,
2013-02-28 19:16:00,40.5,26.4,31.77,ESE,115,0.0,0.0,57,0.00,,,0.00,Wunderground v.1.15,2013-03-01 03:16:00,
2013-02-28 19:21:00,40.5,26.0,31.77,ESE,115,0.0,0.0,56,0.00,,,0.00,Wunderground v.1.15,2013-03-01 03:21:00,
2013-02-28 19:26:00,40.5,25.6,31.77,ESE,116,0.0,0.0,55,0.00,,,0.00,Wunderground v.1.15,2013-03-01 03:26:00,
2013-02-28 19:31:00,40.7,24.4,31.77,NNW,343,1.0,2.0,52,0.00,,,0.00,Wunderground v.1.15,2013-03-01 03:31:00,
2013-02-28 19:36:00,41.1,25.7,31.77,NNW,343,1.0,2.0,54,0.00,,,0.00,Wunderground v.1.15,2013-03-01 03:36:00,
2013-02-28 19:46:00,41.6,24.3,31.77,SE,145,0.0,0.0,50,0.00,,,0.00,Wunderground v.1.15,2013-03-01 03:46:00,
2013-02-28 19:51:00,41.9,26.0,31.77,SE,145,0.0,0.0,53,0.00,,,0.00,Wunderground v.1.15,2013-03-01 03:51:00,
2013-02-28 19:56:00,42.0,24.7,31.77,SE,140,0.0,0.0,50,0.00,,,0.00,Wunderground v.1.15,2013-03-01 03:56:00,
2013-02-28 20:01:00,42.1,26.2,31.77,SE,140,0.0,3.0,53,0.00,,,0.00,Wunderground v.1.15,2013-03-01 04:01:00,
2013-02-28 20:06:00,41.9,25.5,31.77,SE,140,0.0,3.0,52,0.00,,,0.00,Wunderground v.1.15,2013-03-01 04:06:00,
2013-02-28 20:11:00,41.5,26.5,31.77,SE,140,0.0,0.0,55,0.00,,,0.00,Wunderground v.1.15,2013-03-01 04:11:00,
2013-02-28 20:16:00,41.1,26.6,31.77,SE,140,0.0,0.0,56,0.00,,,0.00,Wunderground v.1.15,2013-03-01 04:16:00,
2013-02-28 20:21:00,40.7,26.2,31.77,SE,140,0.0,0.0,56,0.00,,,0.00,Wunderground v.1.15,2013-03-01 04:21:00,
2013-02-28 20:26:00,40.3,27.1,31.77,SE,140,0.0,0.0,59,0.00,,,0.00,Wunderground v.1.15,2013-03-01 04:26:00,
2013-02-28 20:31:00,39.8,26.6,31.77,SE,140,0.0,0.0,59,0.00,,,0.00,Wunderground v.1.15,2013-03-01 04:31:00,
2013-02-28 20:36:00,39.3,27.0,31.77,SE,140,0.0,0.0,61,0.00,,,0.00,Wunderground v.1.15,2013-03-01 04:36:00,
2013-02-28 20:41:00,38.8,25.3,31.77,SE,140,0.0,0.0,58,0.00,,,0.00,Wunderground v.1.15,2013-03-01 04:41:00,
2013-02-28 20:46:00,38.6,24.7,31.77,SE,140,0.0,0.0,57,0.00,,,0.00,Wunderground v.1.15,2013-03-01 04:46:00,
2013-02-28 20:51:00,38.7,25.6,31.77,SE,140,0.0,0.0,59,0.00,,,0.00,Wunderground v.1.15,2013-03-01 04:51:00,
2013-02-28 20:56:00,38.6,25.9,31.77,SE,140,0.0,0.0,60,0.00,,,0.00,Wunderground v.1.15,2013-03-01 04:56:00,
2013-02-28 21:01:00,38.4,26.9,31.77,SE,140,1.0,5.0,63,0.00,,,0.00,Wunderground v.1.15,2013-03-01 05:01:00,
2013-02-28 21:06:00,38.0,26.5,31.77,SE,140,1.0,5.0,63,0.00,,,0.00,Wunderground v.1.15,2013-03-01 05:06:00,
2013-02-28 21:11:00,37.6,26.1,31.77,SE,135,2.0,2.0,63,0.00,,,0.00,Wunderground v.1.15,2013-03-01 05:11:00,
2013-02-28 21:16:00,37.3,24.7,31.77,SE,134,1.0,2.0,60,0.00,,,0.00,Wunderground v.1.15,2013-03-01 05:16:00,
2013-02-28 21:21:00,37.1,23.7,31.77,SE,134,1.0,1.0,58,0.00,,,0.00,Wunderground v.1.15,2013-03-01 05:21:00,
2013-02-28 21:26:00,37.1,25.7,31.77,SE,134,1.0,2.0,63,0.00,,,0.00,Wunderground v.1.15,2013-03-01 05:26:00,
2013-02-28 21:31:00,36.9,25.5,31.77,SE,133,1.0,3.0,63,0.00,,,0.00,Wunderground v.1.15,2013-03-01 05:31:00,
2013-02-28 21:36:00,36.7,24.1,31.77,SE,133,2.0,3.0,60,0.00,,,0.00,Wunderground v.1.15,2013-03-01 05:36:00,
2013-02-28 21:41:00,36.6,24.4,31.77,SE,132,2.0,2.0,61,0.00,,,0.00,Wunderground v.1.15,2013-03-01 05:41:00,
2013-02-28 21:46:00,36.6,24.8,31.77,SE,132,2.0,2.0,62,0.00,,,0.00,Wunderground v.1.15,2013-03-01 05:46:00,
2013-02-28 21:51:00,36.7,23.3,31.77,SE,132,2.0,2.0,58,0.00,,,0.00,Wunderground v.1.15,2013-03-01 05:51:00,
2013-02-28 21:56:00,36.7,24.5,31.77,SE,132,1.0,2.0,61,0.00,,,0.00,Wunderground v.1.15,2013-03-01 05:56:00,
2013-02-28 22:01:00,36.6,24.0,31.77,SE,132,2.0,2.0,60,0.00,,,0.00,Wunderground v.1.15,2013-03-01 06:01:00,
2013-02-28 22:06:00,36.5,23.9,31.77,SE,132,1.0,2.0,60,0.00,,,0.00,Wunderground v.1.15,2013-03-01 06:06:00,
2013-02-28 22:11:00,36.5,23.9,31.77,SE,132,1.0,1.0,60,0.00,,,0.00,Wunderground v.1.15,2013-03-01 06:11:00,
2013-02-28 22:16:00,36.5,25.5,31.77,SE,132,0.0,1.0,64,0.00,,,0.00,Wunderground v.1.15,2013-03-01 06:16:00,
2013-02-28 22:21:00,36.5,25.8,31.77,SE,132,0.0,2.0,65,0.00,,,0.00,Wunderground v.1.15,2013-03-01 06:21:00,
2013-02-28 22:26:00,36.3,26.0,31.77,SE,132,1.0,2.0,66,0.00,,,0.00,Wunderground v.1.15,2013-03-01 06:26:00,
2013-02-28 22:31:00,36.4,25.7,31.77,SE,130,1.0,2.0,65,0.00,,,0.00,Wunderground v.1.15,2013-03-01 06:31:00,
2013-02-28 22:36:00,36.5,24.7,31.77,SE,129,1.0,2.0,62,0.00,,,0.00,Wunderground v.1.15,2013-03-01 06:36:00,
2013-02-28 22:41:00,36.9,25.1,31.77,ENE,57,1.0,1.0,62,0.00,,,0.00,Wunderground v.1.15,2013-03-01 06:41:00,
2013-02-28 22:51:00,37.1,25.3,31.77,NW,325,1.0,1.0,62,0.00,,,0.00,Wunderground v.1.15,2013-03-01 06:51:00,
2013-02-28 22:56:00,37.9,26.8,31.77,NW,325,1.0,1.0,64,0.00,,,0.00,Wunderground v.1.15,2013-03-01 06:56:00,
2013-02-28 23:01:00,41.8,25.0,31.77,East,86,1.0,4.0,51,0.00,,,0.00,Wunderground v.1.15,2013-03-01 07:01:00,
2013-02-28 23:06:00,45.0,26.0,31.77,East,82,2.0,4.0,47,0.00,,,0.00,Wunderground v.1.15,2013-03-01 07:06:00,
2013-02-28 23:11:00,46.3,25.6,31.77,NNE,27,2.0,2.0,44,0.00,,,0.00,Wunderground v.1.15,2013-03-01 07:11:00,
2013-02-28 23:16:00,47.7,23.9,31.77,NE,56,2.0,6.0,39,0.00,,,0.00,Wunderground v.1.15,2013-03-01 07:16:00,
2013-02-28 23:26:00,49.1,25.2,31.77,NNE,25,2.0,4.0,39,0.00,,,0.00,Wunderground v.1.15,2013-03-01 07:26:00,
2013-02-28 23:31:00,48.9,25.0,31.77,NE,46,2.0,2.0,39,0.00,,,0.00,Wunderground v.1.15,2013-03-01 07:31:00,
2013-02-28 23:36:00,48.5,24.6,31.77,East,96,1.0,3.0,39,0.00,,,0.00,Wunderground v.1.15,2013-03-01 07:36:00,
2013-02-28 23:41:00,48.3,24.5,31.77,SE,136,2.0,2.0,39,0.00,,,0.00,Wunderground v.1.15,2013-03-01 07:41:00,
2013-02-28 23:46:00,48.4,23.9,31.77,ESE,123,2.0,2.0,38,0.00,,,0.00,Wunderground v.1.15,2013-03-01 07:46:00,
2013-02-28 23:51:00,48.3,24.5,31.77,SE,124,1.0,1.0,39,0.00,,,0.00,Wunderground v.1.15,2013-03-01 07:51:00,
2013-02-28 23:56:00,47.6,24.4,31.77,SE,124,0.0,1.0,40,0.00,,,0.00,Wunderground v.1.15,2013-03-01 07:56:00,